Duvernay, Canada
Current Conditions -  °F | °C
As of 9:00 AM on Saturday 25 Oct 2014 (Local Time) from CYUL Reporting Station
Scattered Clouds Scattered Clouds  
Wind Chill:   Ceiling: Unl
Heat Index:   Visibility: 30mi
Dew Point:   Wind: 15mph
Humidity: 71%   Direction: 240°WSW
Pressure: 29.73"   Gusts: NA
Location:  45.57°N, 73.85°W
Report Text: CYUL 251300Z 24013KT 30SM FEW010 FEW040 SCT240 07/02 A2973 RMK SF1SC2CI1 SF TR SLP068
Loading
Personal Weather Stations






























Interactive Weather Map
Tropical Storm Tracking
New forecast layout! Learn more

10-Day Weather Forecast

Advertisements
Track Severe Weather on mobile